• Join FlightAware (Why Join?)
  • Login
  • US Flag 
06:54AM EST


 

Airport Tracker/Info


-or-


 

Live Flight TrackerFlight Track Log ✈ N720QS ✈ 10-Jul-2013 ✈ KBOS - KVNY

Flight Track Log - Related Links

Times and Time Zones

All times are in EDT time to prevent confusion due to time zone crossing. See the N720QS flight status page for this flight to view local times or setup timezone preferences in your user account.

Time Position Orientation Groundspeed Altitude Reporting Facility
EDT Latitude Longitude Course Direction KTS MPH feet Rate Location/Type
05:33PM 42.3500 -71.0167 132° Southeast 173 199 600  Level KA90
05:34PM 42.3167 -70.9667 132° Southeast 241 277 3,100 2,520 Climbing KA90
05:35PM 42.3167 -70.8667 90° East 295 339 6,000 3,000 Climbing KA90
05:36PM 42.3383 -70.7886 69° East 297 342 8,400 2,820 Climbing Boston Center
05:37PM 42.4083 -70.7306 31° Northeast 321 369 11,000 2,340 Climbing Boston Center
05:38PM 42.5036 -70.6969 15° North 321 369 13,100 1,500 Climbing Boston Center
05:39PM 42.6075 -70.6658 12° North 367 422 14,000 1,620 Climbing Boston Center
05:40PM 42.7092 -70.6375 12° North 375 432 16,400 2,400 Climbing Boston Center
05:41PM 42.8006 -70.6178 North 375 432 18,800 2,340 Climbing Boston Center
05:42PM 42.9194 -70.6169 360° North 375 432 21,100 1,800 Climbing Boston Center
05:43PM 43.0297 -70.6139 North 376 433 22,400 1,320 Climbing Boston Center
05:44PM 43.1464 -70.6158 359° North 399 459 23,800 1,380 Climbing Boston Center
05:45PM 43.2314 -70.7047 323° Northwest 366 421 25,200 1,320 Climbing Boston Center
05:46PM 43.2356 -70.8556 272° West 334 384 26,500 1,320 Climbing Boston Center
05:47PM 43.2375 -71.0067 271° West 353 406 27,900 1,380 Climbing Boston Center
05:48PM 43.2394 -71.1633 271° West 390 449 29,300 1,380 Climbing Boston Center
05:49PM 43.2389 -71.3172 270° West 400 460 30,700 1,380 Climbing Boston Center
05:50PM 43.2403 -71.4683 271° West 405 466 32,100 1,380 Climbing Boston Center
05:51PM 43.2394 -71.6192 270° West 405 466 33,500 1,380 Climbing Boston Center
05:52PM 43.2383 -71.7647 269° West 405 466 34,900 1,200 Climbing Boston Center
05:53PM 43.2389 -71.8986 270° West 400 460 35,900 540 Climbing Boston Center
05:54PM 43.2397 -72.0467 270° West 400 460 36,000  Climbing Boston Center
05:55PM 43.2400 -72.2006 270° West 405 466 36,000  Level Boston Center
05:56PM 43.2403 -72.3631 270° West 410 472 36,000  Level Boston Center
05:57PM 43.2381 -72.5514 269° West 420 483 36,000  Level Boston Center
05:58PM 43.2378 -72.7081 270° West 420 483 36,000  Level Boston Center
05:59PM 43.2375 -72.8619 270° West 415 478 36,000  Level Boston Center
06:00PM 43.2367 -73.0131 270° West 410 472 36,000  Level Boston Center
06:01PM 43.2464 -73.1642 275° West 400 460 36,000  Level Boston Center
06:02PM 43.2539 -73.2839 275° West 400 460 36,000  Level Boston Center
06:03PM 43.2667 -73.4981 275° West 388 447 36,000  Level Boston Center
06:04PM 43.2797 -73.6436 277° West 388 447 36,000  Level Boston Center
06:05PM 43.2889 -73.7722 276° West 388 447 36,000  Level Boston Center
06:06PM 43.2994 -73.9178 276° West 388 447 36,000  Level Boston Center
06:07PM 43.3100 -74.0608 276° West 388 447 36,000 300 Level Boston Center
06:08PM 43.3189 -74.1753 276° West 382 440 36,600 840 Climbing Boston Center
06:09PM 43.3308 -74.3411 276° West 377 434 37,700 660 Climbing Boston Center
06:10PM 43.3414 -74.4556 277° West 377 434 38,000 120 Climbing Boston Center
06:11PM 43.3528 -74.6272 275° West 377 434 38,000  Level Boston Center
06:12PM 43.3622 -74.7761 275° West 384 442 38,000  Level Boston Center
06:13PM 43.3736 -74.9253 276° West 391 450 38,000  Level Boston Center
06:14PM 43.3850 -75.0714 276° West 391 450 38,000  Level Boston Center
06:15PM 43.3933 -75.2489 274° West 405 466 38,000  Level Boston Center
06:16PM 43.4061 -75.4039 277° West 412 474 38,000  Level Boston Center
06:17PM 43.4147 -75.5531 275° West 406 467 38,000  Level Boston Center
06:18PM 43.4231 -75.6992 275° West 396 456 38,000  Level Boston Center
06:21PM 43.4167 -76.0000 268° West 390 449 38,000  Level Toronto Center
06:22PM 43.4500 -76.1667 285° West 390 449 38,000  Level Toronto Center
06:23PM 43.4500 -76.3000 270° West 380 437 38,000  Level Toronto Center
06:24PM 43.4500 -76.4667 270° West 390 449 38,000  Level Toronto Center
06:25PM 43.4500 -76.6000 270° West 380 437 38,000  Level Toronto Center
06:26PM 43.4833 -76.7667 285° West 390 449 38,000  Level Toronto Center
06:27PM 43.4881 -76.9178 273° West 384 442 38,100 300 Climbing Cleveland Center
06:28PM 43.4967 -77.0631 275° West 384 442 38,600 480 Climbing Cleveland Center
06:29PM 43.5011 -77.2117 272° West 384 442 39,100 480 Climbing Cleveland Center
06:30PM 43.5094 -77.3544 275° West 384 442 39,600 420 Climbing Cleveland Center
06:31PM 43.5153 -77.4944 273° West 379 436 40,000 180 Climbing Cleveland Center
06:32PM 43.5211 -77.6372 273° West 379 436 40,000  Level Cleveland Center
06:33PM 43.5289 -77.7803 274° West 379 436 40,000  Level Cleveland Center
06:34PM 43.5344 -77.9289 273° West 384 442 40,000  Level Cleveland Center
06:35PM 43.5397 -78.0747 273° West 384 442 40,000  Level Cleveland Center
06:36PM 43.5469 -78.2175 274° West 384 442 40,000  Level Cleveland Center
06:37PM 43.5517 -78.3550 273° West 384 442 40,000  Level Cleveland Center
06:38PM 43.5544 -78.4981 272° West 379 436 40,000  Level Cleveland Center
06:39PM 43.5608 -78.6381 274° West 379 436 40,000  Level Cleveland Center
06:40PM 43.5500 -78.7667 263° West 370 426 40,000  Level Toronto Center
06:41PM 43.5667 -78.9000 280° West 360 414 40,000  Level Toronto Center
06:42PM 43.5667 -79.0333 270° West 360 414 40,000  Level Toronto Center
06:43PM 43.5667 -79.1667 270° West 360 414 40,000  Level Toronto Center
06:44PM 43.5667 -79.3167 270° West 360 414 40,000  Level Toronto Center
06:45PM 43.5667 -79.4500 270° West 350 403 40,000  Level Toronto Center
06:46PM 43.5833 -79.5833 280° West 370 426 40,000  Level Toronto Center
06:47PM 43.5833 -79.7333 270° West 360 414 40,000  Level Toronto Center
06:48PM 43.5833 -79.8667 270° West 360 414 40,000  Level Toronto Center
06:49PM 43.5833 -80.0000 270° West 360 414 40,000  Level Toronto Center
06:50PM 43.5833 -80.1333 270° West 360 414 40,000  Level Toronto Center
06:51PM 43.6000 -80.2833 279° West 360 414 40,000  Level Toronto Center
06:52PM 43.6000 -80.4167 270° West 360 414 40,000  Level Toronto Center
06:53PM 43.6000 -80.5500 270° West 350 403 40,000  Level Toronto Center
06:54PM 43.6000 -80.7000 270° West 360 414 40,000  Level Toronto Center
06:55PM 43.6000 -80.8333 270° West 360 414 40,000  Level Toronto Center
06:56PM 43.6000 -80.9667 270° West 360 414 40,000  Level Toronto Center
06:57PM 43.6000 -81.1000 270° West 370 426 40,000  Level Toronto Center
06:58PM 43.6000 -81.2500 270° West 370 426 40,000  Level Toronto Center
06:59PM 43.6000 -81.3833 270° West 370 426 40,000  Level Toronto Center
07:00PM 43.6167 -81.5167 280° West 370 426 40,000  Level Toronto Center
07:01PM 43.6167 -81.6667 270° West 370 426 40,000  Level Toronto Center
07:02PM 43.6167 -81.8167 270° West 370 426 40,000  Level Toronto Center
07:03PM 43.6000 -81.9667 261° West 370 426 40,000  Level Toronto Center
07:04PM 43.6000 -82.1000 270° West 370 426 40,000  Level Toronto Center
07:04PM 43.6222 -82.1889 289° West 370 426 40,000  Level Cleveland Center
07:05PM 43.6244 -82.3325 271° West 370 426 40,000  Level Cleveland Center
07:06PM 43.6222 -82.4758 269° West 375 432 40,000  Level Cleveland Center
07:07PM 43.6239 -82.6164 271° West 375 432 40,000  Level Cleveland Center
07:08PM 43.6233 -82.7597 270° West 375 432 40,000  Level Cleveland Center
07:09PM 43.6247 -82.9031 271° West 375 432 40,000  Level Cleveland Center
07:10PM 43.6217 -83.0464 268° West 375 432 40,000  Level Cleveland Center
07:11PM 43.6208 -83.1869 270° West 375 432 40,000  Level Cleveland Center
07:12PM 43.6197 -83.3303 269° West 375 432 40,000  Level Cleveland Center
07:14PM 43.6167 -83.5333 269° West 370 426 40,000  Level Toronto Center
07:15PM 43.6167 -83.6667 270° West 370 426 40,000  Level Toronto Center
07:15PM 43.6156 -83.7550 269° West 370 426 40,000  Level Minneapolis Center
07:17PM 43.6147 -83.8956 270° West 369 425 40,000  Level Minneapolis Center
07:18PM 43.6122 -84.0653 269° West 368 423 40,000  Level Minneapolis Center
07:19PM 43.6103 -84.2042 269° West 365 420 40,000  Level Minneapolis Center
07:20PM 43.6083 -84.3436 269° West 364 419 40,000  Level Minneapolis Center
07:21PM 43.6067 -84.4794 269° West 359 413 40,000  Level Minneapolis Center
07:21PM 43.6044 -84.5892 268° West 358 412 40,000  Level Minneapolis Center
07:23PM 43.6014 -84.7517 269° West 356 410 40,000  Level Minneapolis Center
07:24PM 43.5986 -84.8856 268° West 353 406 40,000  Level Minneapolis Center
07:25PM 43.5967 -85.0197 269° West 352 405 40,000  Level Minneapolis Center
07:26PM 43.5939 -85.1544 268° West 353 406 40,000  Level Minneapolis Center
07:27PM 43.5914 -85.2875 269° West 352 405 40,000  Level Minneapolis Center
07:28PM 43.5875 -85.4192 268° West 349 402 40,000  Level Minneapolis Center
07:29PM 43.5836 -85.5781 268° West 348 400 40,000  Level Minneapolis Center
07:30PM 43.5800 -85.7100 268° West 347 399 40,000  Level Minneapolis Center
07:31PM 43.5764 -85.8422 268° West 348 400 40,000  Level Minneapolis Center
07:32PM 43.5722 -85.9753 268° West 350 403 40,000  Level Minneapolis Center
07:33PM 43.5681 -86.1089 268° West 351 404 40,000  Level Minneapolis Center
07:34PM 43.5633 -86.2703 268° West 353 406 40,000  Level Minneapolis Center
07:35PM 43.5583 -86.4056 267° West 355 409 40,000  Level Minneapolis Center
07:36PM 43.5544 -86.5442 268° West 361 415 40,000  Level Minneapolis Center
07:37PM 43.5489 -86.6822 267° West 362 417 40,000  Level Minneapolis Center
07:38PM 43.5433 -86.8222 267° West 366 421 40,000  Level Minneapolis Center
07:39PM 43.5381 -86.9900 268° West 367 422 40,000  Level Minneapolis Center
07:40PM 43.5325 -87.1314 267° West 371 427 40,000  Level Minneapolis Center
07:41PM 43.5256 -87.2764 266° West 378 435 40,000  Level Minneapolis Center
07:42PM 43.5117 -87.4225 263° West 378 435 40,000  Level Minneapolis Center
07:43PM 43.4958 -87.5656 261° West 378 435 40,000  Level Minneapolis Center
07:44PM 43.4758 -87.7319 261° West 377 434 40,000  Level Minneapolis Center
07:45PM 43.4594 -87.8775 261° West 383 441 40,000  Level Minneapolis Center
07:46PM 43.4425 -88.0233 261° West 385 443 40,000  Level Minneapolis Center
07:47PM 43.4253 -88.1678 261° West 384 442 40,000  Level Minneapolis Center
07:48PM 43.4078 -88.3142 261° West 387 445 40,000  Level Minneapolis Center
07:49PM 43.3889 -88.4711 261° West 387 445 40,000  Level Minneapolis Center
07:50PM 43.3689 -88.6142 259° West 385 443 40,000  Level Minneapolis Center
07:51PM 43.3528 -88.7672 262° West 396 456 40,000  Level Minneapolis Center
07:53PM 43.3319 -88.9397 261° West 393 452 40,000  Level Minneapolis Center
07:54PM 43.3131 -89.0892 260° West 395 455 40,000  Level Minneapolis Center
07:55PM 43.2944 -89.2369 260° West 395 455 40,000  Level Minneapolis Center
07:56PM 43.2747 -89.3853 260° West 395 455 40,000  Level Minneapolis Center
07:57PM 43.2547 -89.5333 260° West 394 453 40,000  Level Minneapolis Center
07:58PM 43.2328 -89.7061 260° West 396 456 40,000  Level Minneapolis Center
07:59PM 43.2125 -89.8542 259° West 396 456 40,000  Level Minneapolis Center
08:00PM 43.1928 -90.0022 260° West 395 455 40,000  Level Minneapolis Center
08:01PM 43.1725 -90.1514 259° West 397 457 40,000  Level Minneapolis Center
08:02PM 43.1519 -90.3011 259° West 396 456 40,000  Level Minneapolis Center
08:03PM 43.1319 -90.4481 259° West 397 457 40,000  Level Minneapolis Center
08:04PM 43.1117 -90.5947 259° West 398 458 40,000  Level Minneapolis Center
08:05PM 43.0867 -90.7711 259° West 398 458 40,000  Level Minneapolis Center
08:06PM 43.0750 -90.8597 260° West 397 457 40,000  Level Chicago Center
08:07PM 43.0528 -91.0086 259° West 403 464 40,000  Level Chicago Center
08:08PM 43.0336 -91.1561 260° West 400 460 40,000  Level Chicago Center
08:09PM 43.0069 -91.3342 258° West 404 465 40,000  Level Chicago Center
08:10PM 42.9864 -91.4819 259° West 404 465 40,000  Level Chicago Center
08:11PM 42.9636 -91.6294 258° West 405 466 40,000  Level Chicago Center
08:12PM 42.9408 -91.7767 258° West 406 467 40,000  Level Chicago Center
08:13PM 42.9139 -91.9525 258° West 410 472 40,000  Level Chicago Center
08:14PM 42.8900 -92.1008 258° West 408 470 40,000  Level Chicago Center
08:15PM 42.8672 -92.2486 258° West 405 466 40,000  Level Chicago Center
08:16PM 42.8447 -92.3978 258° West 407 468 40,000  Level Chicago Center
08:17PM 42.8197 -92.5478 257° West 410 472 40,000  Level Chicago Center
08:18PM 42.7911 -92.7275 258° West 410 472 40,000  Level Chicago Center
08:19PM 42.7678 -92.8797 258° West 415 478 40,000  Level Chicago Center
08:20PM 42.7428 -93.0297 257° West 412 474 40,000  Level Chicago Center
08:21PM 42.7186 -93.1786 258° West 409 471 40,000  Level Chicago Center
08:22PM 42.6933 -93.3297 257° West 413 475 40,000  Level Chicago Center
08:23PM 42.6636 -93.5086 257° West 411 473 40,000  Level Chicago Center
08:24PM 42.6403 -93.6586 258° West 408 470 40,000  Level Minneapolis Center
08:25PM 42.6156 -93.8081 257° West 410 472 40,000  Level Minneapolis Center
08:26PM 42.5861 -93.9608 255° West 418 481 40,000  Level Minneapolis Center
08:27PM 42.5558 -94.1406 257° West 414 476 40,000  Level Minneapolis Center
08:28PM 42.5317 -94.2894 258° West 411 473 40,000  Level Minneapolis Center
08:29PM 42.5056 -94.4381 257° West 410 472 40,000  Level Minneapolis Center
08:30PM 42.4744 -94.6117 256° West 414 476 40,000  Level Minneapolis Center
08:31PM 42.4511 -94.7428 256° West 413 475 40,000  Level Minneapolis Center
08:32PM 42.4236 -94.8939 256° West 415 478 40,000  Level Minneapolis Center
08:33PM 42.3903 -95.0767 256° West 418 481 40,000  Level Minneapolis Center
08:35PM 42.3628 -95.2300 256° West 421 484 40,000  Level Minneapolis Center
08:36PM 42.3344 -95.3767 255° West 410 472 40,000  Level Minneapolis Center
08:37PM 42.3058 -95.5281 256° West 413 475 40,000  Level Minneapolis Center
08:38PM 42.2772 -95.6828 256° West 421 484 40,000  Level Minneapolis Center
08:39PM 42.2428 -95.8656 256° West 421 484 40,000  Level Minneapolis Center
08:40PM 42.2133 -96.0200 256° West 426 490 40,000  Level Minneapolis Center
08:41PM 42.1839 -96.1731 255° West 426 490 40,000  Level Minneapolis Center
08:42PM 42.1544 -96.3247 255° West 422 486 40,000  Level Minneapolis Center
08:43PM 42.1239 -96.4794 255° West 428 493 40,000  Level Minneapolis Center
08:44PM 42.0875 -96.6636 255° West 427 491 40,000  Level Minneapolis Center
08:45PM 42.0633 -96.7858 255° West 426 490 40,000  Level Minneapolis Center
08:46PM 42.0272 -96.9689 255° West 424 488 40,000  Level Minneapolis Center
08:47PM 41.9950 -97.1231 254° West 426 490 40,000  Level Minneapolis Center
08:48PM 41.9644 -97.2756 255° West 427 491 40,000  Level Minneapolis Center
08:49PM 41.9331 -97.4297 255° West 428 493 40,000  Level Minneapolis Center
08:50PM 41.8939 -97.6122 254° West 426 490 40,000  Level Minneapolis Center
08:51PM 41.8631 -97.7656 255° West 427 491 40,000  Level Minneapolis Center
08:52PM 41.8308 -97.9169 254° West 426 490 40,000  Level Minneapolis Center
08:53PM 41.7986 -98.0683 254° West 425 489 40,000  Level Minneapolis Center
08:54PM 41.7669 -98.2183 254° West 422 486 40,000  Level Minneapolis Center
08:55PM 41.7289 -98.3978 254° West 420 483 40,000  Level Minneapolis Center
08:56PM 41.6958 -98.5494 254° West 423 487 40,000  Level Minneapolis Center
08:57PM 41.6636 -98.6994 254° West 423 487 40,000  Level Minneapolis Center
08:58PM 41.6306 -98.8497 254° West 423 487 40,000  Level Minneapolis Center
08:59PM 41.5967 -99.0003 253° West 425 489 40,000  Level Minneapolis Center
09:00PM 41.5700 -99.1219 254° West 427 491 40,000  Level Denver Center
09:01PM 41.5364 -99.2722 253° West 427 491 40,000  Level Denver Center
09:02PM 41.5019 -99.4222 253° West 426 490 40,000  Level Denver Center
09:03PM 41.4611 -99.6028 253° West 427 491 40,000  Level Denver Center
09:04PM 41.4267 -99.7533 253° West 426 490 40,000  Level Denver Center
09:05PM 41.3894 -99.9131 253° West 429 494 40,000  Level Denver Center
09:06PM 41.3575 -100.0575 254° West 427 491 40,000  Level Denver Center
09:07PM 41.3236 -100.2019 253° West 429 494 40,000  Level Denver Center
09:08PM 41.2850 -100.3675 253° West 423 487 40,000  Level Denver Center
09:09PM 41.2508 -100.5100 252° West 424 488 40,000  Level Denver Center
09:10PM 41.2111 -100.6739 252° West 423 487 40,000  Level Denver Center
09:11PM 41.1781 -100.8161 253° West 425 489 40,000  Level Denver Center
09:12PM 41.1369 -100.9808 252° West 426 490 40,000  Level Denver Center
09:13PM 41.1033 -101.1242 253° West 428 493 40,000  Level Denver Center
09:14PM 41.0617 -101.2864 251° West 424 488 40,000  Level Denver Center
09:16PM 41.0272 -101.4267 252° West 422 486 40,000  Level Denver Center
09:17PM 40.9853 -101.5919 251° West 426 490 40,000  Level Denver Center
09:18PM 40.9511 -101.7331 252° West 423 487 40,000  Level Denver Center
09:19PM 40.9167 -101.8731 252° West 420 483 40,000  Level Denver Center
09:20PM 40.8711 -102.0353 250° West 423 487 40,000  Level Denver Center
09:21PM 40.8094 -102.1639 238° Southwest 433 498 40,000  Level Denver Center
09:22PM 40.7392 -102.3144 238° Southwest 432 497 40,000  Level Denver Center
09:23PM 40.6800 -102.4458 239° Southwest 436 502 40,000  Level Denver Center
09:24PM 40.6103 -102.5997 239° Southwest 438 504 40,000  Level Denver Center
09:25PM 40.5511 -102.7408 241° Southwest 440 506 40,000  Level Denver Center
09:26PM 40.5142 -102.8900 252° West 431 496 40,000  Level Denver Center
09:27PM 40.4769 -103.0386 252° West 429 494 40,000  Level Denver Center
09:28PM 40.4397 -103.1883 252° West 432 497 40,000  Level Denver Center
09:29PM 40.4097 -103.3078 252° West 433 498 40,000  Level Denver Center
09:30PM 40.3639 -103.4861 251° West 432 497 40,000  Level Denver Center
09:31PM 40.3178 -103.6653 251° West 435 501 40,000  Level Denver Center
09:32PM 40.2803 -103.8181 252° West 442 509 40,000  Level Denver Center
09:33PM 40.2400 -103.9683 251° West 437 503 40,000  Level Denver Center
09:34PM 40.2006 -104.1194 251° West 442 509 40,000  Level Denver Center
09:35PM 40.1608 -104.2692 251° West 438 504 40,000  Level Denver Center
09:36PM 40.1206 -104.4247 251° West 452 520 40,000  Level Denver Center
09:37PM 40.0803 -104.5761 251° West 447 514 40,000  Level Denver Center
09:38PM 40.0314 -104.7639 251° West 455 524 40,000  Level Denver Center
09:39PM 39.9894 -104.9197 251° West 460 529 40,000  Level Denver Center
09:40PM 39.9469 -105.0703 250° West 447 514 40,000  Level Denver Center
09:41PM 39.9042 -105.2261 250° West 461 531 40,000  Level Denver Center
09:42PM 39.8617 -105.3797 250° West 450 518 40,000  Level Denver Center
09:43PM 39.8189 -105.5339 250° West 456 525 40,000  Level Denver Center
09:44PM 39.7681 -105.7156 250° West 446 513 40,000  Level Denver Center
09:45PM 39.7269 -105.8656 250° West 438 504 40,000  Level Denver Center
09:46PM 39.6836 -106.0211 250° West 457 526 40,000  Level Denver Center
09:47PM 39.6414 -106.1669 249° West 461 531 40,000  Level Denver Center
09:48PM 39.5975 -106.3203 250° West 455 524 40,000  Level Denver Center
09:49PM 39.5536 -106.4742 250° West 456 525 40,000  Level Denver Center
09:50PM 39.5000 -106.6594 249° West 453 521 40,000  Level Denver Center
09:51PM 39.4650 -106.7817 250° West 454 522 40,000  Level Denver Center
09:52PM 39.4128 -106.9514 248° West 455 524 40,000  Level Denver Center
09:54PM 39.3658 -107.1214 250° West 452 520 40,000  Level Denver Center
09:55PM 39.3211 -107.2697 249° West 459 528 40,000  Level Denver Center
09:56PM 39.2631 -107.4639 249° West 455 524 40,000  Level Denver Center
09:57PM 39.2181 -107.6128 249° West 461 531 40,000  Level Denver Center
09:58PM 39.1669 -107.7847 249° West 458 527 40,000  Level Denver Center
09:59PM 39.1236 -107.9306 249° West 457 526 40,000  Level Denver Center
10:00PM 39.0717 -108.0994 248° West 453 521 40,000  Level Denver Center
10:01PM 39.0267 -108.2431 248° West 452 520 40,000  Level Denver Center
10:02PM 38.9811 -108.3942 249° West 469 540 40,000  Level Denver Center
10:03PM 38.9275 -108.5667 248° West 463 533 40,000  Level Denver Center
10:04PM 38.8839 -108.7089 249° West 448 516 40,000  Level Denver Center
10:05PM 38.8317 -108.8758 248° West 450 518 40,000  Level Denver Center
10:06PM 38.7864 -109.0200 248° West 454 522 40,000  Level Denver Center
10:07PM 38.7411 -109.1619 248° West 451 519 40,000  Level Denver Center
10:08PM 38.6886 -109.3272 248° West 448 516 40,000  Level Denver Center
10:09PM 38.6517 -109.4456 248° West 448 516 40,000  Level Denver Center
10:10PM 38.5917 -109.6294 247° West 434 499 40,000  Level Denver Center
10:11PM 38.5469 -109.7658 247° West 435 501 40,000  Level Denver Center
10:12PM 38.4953 -109.9264 248° West 433 498 40,000  Level Denver Center
10:13PM 38.4514 -110.0603 247° West 426 490 40,000  Level Denver Center
10:14PM 38.4075 -110.1967 248° West 431 496 40,000  Level Denver Center
10:15PM 38.3706 -110.3081 247° West 428 493 40,000  Level Salt Lake Center
10:16PM 38.3194 -110.4644 247° West 428 493 40,000  Level Salt Lake Center
10:17PM 38.2750 -110.5981 247° West 427 491 40,000  Level Salt Lake Center
10:18PM 38.2308 -110.7311 247° West 426 490 40,000  Level Salt Lake Center
10:19PM 38.1794 -110.8869 247° West 427 491 40,000  Level Salt Lake Center
10:20PM 38.1386 -111.0058 246° West 426 490 40,000  Level Salt Lake Center
10:21PM 38.0828 -111.1717 247° West 426 490 40,000  Level Salt Lake Center
10:22PM 38.0353 -111.3111 247° West 429 494 40,000  Level Salt Lake Center
10:23PM 37.9864 -111.4506 246° West 433 498 40,000  Level Salt Lake Center
10:24PM 37.9389 -111.5908 247° West 434 499 40,000  Level Salt Lake Center
10:25PM 37.8906 -111.7297 246° West 431 496 40,000  Level Salt Lake Center
10:26PM 37.8411 -111.8692 246° West 434 499 40,000  Level Salt Lake Center
10:27PM 37.7917 -112.0097 246° West 438 504 40,000  Level Salt Lake Center
10:28PM 37.7339 -112.1783 247° West 437 503 40,000  Level Salt Lake Center
10:29PM 37.6814 -112.3153 244° Southwest 434 499 40,000  Level Salt Lake Center
10:30PM 37.6050 -112.4339 231° Southwest 433 498 40,000  Level Salt Lake Center
10:31PM 37.5281 -112.5528 231° Southwest 434 499 40,000  Level Salt Lake Center
10:32PM 37.4494 -112.6719 230° Southwest 435 501 40,000  Level Salt Lake Center
10:34PM 37.3700 -112.7922 230° Southwest 438 504 40,000  Level Salt Lake Center
10:34PM 37.3247 -112.8650 232° Southwest 438 504 40,000  Level Los Angeles Center
10:35PM 37.2489 -112.9839 231° Southwest 435 501 40,000  Level Los Angeles Center
10:36PM 37.1708 -113.1019 230° Southwest 436 502 40,000  Level Los Angeles Center
10:37PM 37.0947 -113.2208 231° Southwest 437 503 40,000  Level Los Angeles Center
10:38PM 37.0167 -113.3389 230° Southwest 439 505 40,000  Level Los Angeles Center
10:39PM 36.9392 -113.4575 231° Southwest 442 509 40,000  Level Los Angeles Center
10:40PM 36.8611 -113.5753 230° Southwest 440 506 40,000  Level Los Angeles Center
10:41PM 36.7675 -113.7167 230° Southwest 441 507 40,000  Level Los Angeles Center
10:42PM 36.6897 -113.8356 231° Southwest 443 510 40,000  Level Los Angeles Center
10:43PM 36.6117 -113.9531 230° Southwest 442 509 40,000  Level Los Angeles Center
10:44PM 36.5331 -114.0700 230° Southwest 442 509 40,000  Level Los Angeles Center
10:45PM 36.4481 -114.1950 230° Southwest 444 511 40,000  Level Los Angeles Center
10:46PM 36.3692 -114.3125 230° Southwest 443 510 40,000  Level Los Angeles Center
10:47PM 36.2897 -114.4306 230° Southwest 443 510 40,000  Level Los Angeles Center
10:48PM 36.2092 -114.5469 229° Southwest 443 510 40,000  Level Los Angeles Center
10:50PM 36.1303 -114.6636 230° Southwest 442 509 40,000  Level Los Angeles Center
10:51PM 36.0500 -114.7800 230° Southwest 442 509 40,000  Level Los Angeles Center
10:52PM 35.9519 -114.9208 229° Southwest 446 513 40,000  Level Los Angeles Center
10:53PM 35.8678 -115.0331 227° Southwest 443 510 40,000  Level Los Angeles Center
10:54PM 35.7842 -115.1472 228° Southwest 444 511 40,000  Level Los Angeles Center
10:55PM 35.6997 -115.2631 228° Southwest 449 517 40,000  Level Los Angeles Center
10:56PM 35.6158 -115.3772 228° Southwest 449 517 40,000  Level Los Angeles Center
10:57PM 35.5314 -115.4906 228° Southwest 448 516 40,000  Level Los Angeles Center
10:58PM 35.4394 -115.6136 227° Southwest 447 514 40,000 -660 Level Los Angeles Center
10:59PM 35.3539 -115.7258 227° Southwest 451 519 38,700 -1,320 Descending Los Angeles Center
11:00PM 35.2689 -115.8400 228° Southwest 454 522 37,300 -1,320 Descending Los Angeles Center
11:01PM 35.1844 -115.9514 227° Southwest 446 513 36,000 -1,320 Descending Los Angeles Center
11:02PM 35.0997 -116.0644 228° Southwest 449 517 34,700 -1,320 Descending Los Angeles Center
11:03PM 35.0064 -116.1667 222° Southwest 450 518 33,400 -1,320 Descending Los Angeles Center
11:04PM 34.9103 -116.2675 221° Southwest 454 522 32,100 -1,440 Descending Los Angeles Center
11:05PM 34.7925 -116.3908 221° Southwest 461 531 30,500 -1,440 Descending Los Angeles Center
11:06PM 34.6961 -116.4925 221° Southwest 459 528 29,200 -1,320 Descending Los Angeles Center
11:07PM 34.5994 -116.5925 220° Southwest 454 522 27,800 -1,440 Descending Los Angeles Center
11:08PM 34.5225 -116.6733 221° Southwest 456 525 26,300 -1,800 Descending Los Angeles Center
11:09PM 34.4047 -116.7958 221° Southwest 465 535 24,100 -1,980 Descending Los Angeles Center
11:10PM 34.3078 -116.8964 221° Southwest 460 529 22,300 -1,800 Descending Los Angeles Center
11:11PM 34.2131 -116.9964 221° Southwest 453 521 20,500 -1,620 Descending Los Angeles Center
11:12PM 34.1147 -117.1011 221° Southwest 400 460 19,000 -1,500 Descending Los Angeles Center
11:13PM 34.0833 -117.1833 245° Southwest 338 389 17,800 -1,560 Descending Southern California TRACON
11:14PM 34.0500 -117.2833 248° West 326 375 16,200 -1,560 Descending Southern California TRACON
11:15PM 34.0333 -117.4000 260° West 341 392 14,700 -1,560 Descending Southern California TRACON
11:16PM 34.0167 -117.5000 259° West 318 366 13,100 -1,620 Descending Southern California TRACON
11:17PM 34.0167 -117.6000 270° West 421 484 11,700 -1,500 Descending Southern California TRACON
11:18PM 34.0000 -117.7167 260° West 282 325 10,100 -1,440 Descending Southern California TRACON
11:19PM 34.0000 -117.8167 270° West 269 310 8,800 -1,200 Descending Southern California TRACON
11:20PM 33.9833 -117.8833 253° West 249 287 7,700 -1,200 Descending Southern California TRACON
11:21PM 33.9833 -117.9833 270° West 250 288 6,500 -1,200 Descending Southern California TRACON
11:22PM 33.9667 -118.0500 253° West 253 291 5,500 -1,260 Descending Southern California TRACON
11:23PM 33.9667 -118.1333 270° West 233 268 4,200 -1,200 Descending Southern California TRACON
11:23PM 33.9619 -118.1586 257° West 231 266 3,700 -780 Descending Los Angeles Center
11:24PM 33.9550 -118.2161 262° West 183 211 3,000 -900 Descending Los Angeles Center
11:26PM 33.9481 -118.2889 263° West 183 211 1,900 -1,080 Descending Los Angeles Center
11:27PM 33.9425 -118.3386 262° West 165 190 900 -780 Descending Los Angeles Center
11:28PM 33.9386 -118.3817 264° West 143 165 300 -600 Descending Los Angeles Center
11:30PM 33.9333 -118.4000 259° West  Level FlightAware Approximate
11:37PM 33.9425 -118.4081 259° West  Level Estimated
11:38PM 33.9425 -118.4081 259° West  Level Estimated
11:39PM 33.9425 -118.4081 259° West  Level Estimated
11:40PM 33.9425 -118.4081 259° West  Level Estimated
11:41PM 33.9425 -118.4081 259° West  Level Estimated
11:42PM 33.9425 -118.4081 259° West  Level Estimated
11:43PM 33.9425 -118.4081 259° West  Level Estimated
11:44PM 33.9425 -118.4081 259° West  Level Estimated
11:45PM 33.9425 -118.4081 259° West  Level Estimated